Deltaville, VA

1:35 PM EDT on August 20, 2014 (GMT -0400)
West Point | Change Station
CLOSE
Current Station
Airport
Location: West Point,
Elevation: 23 ft
Nearby Weather Stations

Elev 23 ft 37.52 °N, 76.76 °W | Updated 20 minutes ago

Clear
Clear
86 °F
Feels Like 86 °F
N
6
Wind Variable Wind from ESE

Today
High -- | Low -- °F
--% Chance of Precip.
Yesterday
High -- | Low -- °F
Precip. -- in
6:25 AM 7:51 PM
Waning Crescent, 20% visible
Pressure 30.00 in
Visibility 10.0 miles
Clouds Clear
Heat Index 86 °F
Dew Point 61 °F
Humidity 44%
Rainfall 0.00 in
Snow Depth Not available.
UV 10 out of 12
Pollen 8.60 out of 12
Air Quality Not available.
Flu Activity Not available.
METAR KFYJ 201715Z AUTO 11005KT 10SM CLR 30/16 A3000 RMK AO2 T02980163

More Conditions Fewer Conditions

Pressure 30.00 in
Visibility 10.0 miles
Clouds Clear
Heat Index 86 °F
Dew Point 61 °F
Humidity 44%
Rainfall 0.00 in
Snow Depth Not available.
UV 10 out of 12
Pollen 8.60 out of 12
Air Quality Not available.
Flu Activity Not available.
METAR KFYJ 201715Z AUTO 11005KT 10SM CLR 30/16 A3000 RMK AO2 T02980163

More Conditions Fewer Conditions

10-Day Weather Forecast

Almanac

Astronomy

Aug. 20, 2014 Rise Set
Actual Time 6:25 AM EDT 7:51 PM EDT
Civil Twilight 5:58 AM EDT 8:18 PM EDT
Nautical Twilight 5:25 AM EDT 8:51 PM EDT
Astronomical Twilight 4:50 AM EDT 9:26 PM EDT
Moon 2:05 AM EDT 4:32 PM EDT
Length of Visible Light 14h 20m
Length of Day
13h 25m
Tomorrow will be 2m 11s shorter.
Waning Crescent, 20% of the Moon is Illuminated
Today
Waning Crescent
Aug 25
New
Sep 2
First Quarter
Sep 8
Full
Sep 15
Last Quarter

Today's Extremes

State Highs State Lows

Community

WunderPhotos

Upload Photos

1,745,698 photos uploaded!

WunderBlogs® & News

By Dr. Jeff Masters
Director of Meteorology, Weather Underground
By Kari Strenfel
Meteorologist, Weather Underground
By Christopher C. Burt
Weather Historian, Weather Underground
August 20, 2014
August 20, 2014
August 20, 2014

Nearby

Snow Depth

Station Depth Elevation
No new snow has been reported.

Earthquake Activity

City Distance Mag. Time & Date
No recent earthquake activity has been reported nearby.
Minimum magnitude displayed is 2.5.

Coastal Water Temperatures

Place Temperature
No Stations Reporting

Nearby Weather Stations